createdAt,value
2017-07-12T00:00:01.457Z,100192.90
2017-07-12T00:02:31.106Z,100196.88
2017-07-12T00:05:00.807Z,100195.14
2017-07-12T00:07:31.358Z,100197.11
2017-07-12T00:10:01.959Z,100193.66
2017-07-12T00:12:31.601Z,100192.59
2017-07-12T00:15:01.245Z,100188.73
2017-07-12T00:17:30.911Z,100191.98
2017-07-12T00:20:00.557Z,100183.91
2017-07-12T00:22:30.244Z,100179.30
2017-07-12T00:24:59.897Z,100179.73
2017-07-12T00:27:29.541Z,100181.91
2017-07-12T00:29:59.202Z,100179.89
2017-07-12T00:32:29.721Z,100173.14
2017-07-12T00:34:59.414Z,100170.55
2017-07-12T00:37:29.065Z,100166.62
2017-07-12T00:39:58.730Z,100170.73
2017-07-12T00:42:28.411Z,100173.20
2017-07-12T00:44:58.058Z,100173.19
2017-07-12T00:47:27.730Z,100185.31
2017-07-12T00:49:57.684Z,100178.60
2017-07-12T00:52:27.323Z,100169.06
2017-07-12T00:54:56.989Z,100163.23
2017-07-12T00:57:26.626Z,100161.82
2017-07-12T00:59:58.532Z,100161.27
2017-07-12T01:02:29.226Z,100153.67
2017-07-12T01:04:58.915Z,100155.84
2017-07-12T01:07:28.585Z,100157.78
2017-07-12T01:09:58.234Z,100154.71
2017-07-12T01:12:27.897Z,100154.39
2017-07-12T01:14:57.162Z,100161.50
2017-07-12T01:17:26.861Z,100153.45
2017-07-12T01:19:56.506Z,100148.36
2017-07-12T01:22:26.142Z,100138.25
2017-07-12T01:24:55.814Z,100134.56
2017-07-12T01:27:25.450Z,100128.16
2017-07-12T01:29:55.131Z,100127.85
2017-07-12T01:32:24.776Z,100123.86
2017-07-12T01:34:54.413Z,100120.03
2017-07-12T01:37:24.074Z,100122.30
2017-07-12T01:39:53.761Z,100122.25
2017-07-12T01:42:23.433Z,100118.52
2017-07-12T01:44:53.095Z,100116.86
2017-07-12T01:47:22.744Z,100118.82
2017-07-12T01:49:52.631Z,100117.00
2017-07-12T01:52:22.282Z,100116.33
2017-07-12T01:54:51.967Z,100106.62
2017-07-12T01:57:21.606Z,100108.16
2017-07-12T01:59:51.265Z,100109.18
2017-07-12T02:02:20.939Z,100112.53
2017-07-12T02:04:50.609Z,100109.16
2017-07-12T02:07:20.294Z,100107.66
2017-07-12T02:09:49.966Z,100103.32
2017-07-12T02:12:19.633Z,100104.84
2017-07-12T02:14:49.321Z,100098.44
2017-07-12T02:17:18.985Z,100104.87
2017-07-12T02:19:48.698Z,100107.39
2017-07-12T02:22:18.336Z,100105.11
2017-07-12T02:24:47.977Z,100101.37
2017-07-12T02:27:17.691Z,100097.13
2017-07-12T02:29:47.333Z,100098.73
2017-07-12T02:32:17.034Z,100099.61
2017-07-12T02:34:46.694Z,100095.73
2017-07-12T02:37:16.341Z,100099.23
2017-07-12T02:39:46.023Z,100101.73
2017-07-12T02:42:15.706Z,100096.52
2017-07-12T02:44:45.405Z,100103.06
2017-07-12T02:47:15.065Z,100093.58
2017-07-12T02:49:44.709Z,100087.18
2017-07-12T02:52:14.386Z,100090.02
2017-07-12T02:54:44.034Z,100087.42
2017-07-12T02:57:13.723Z,100084.30
2017-07-12T02:59:43.378Z,100077.66
2017-07-12T03:02:13.102Z,100078.67
2017-07-12T03:04:42.858Z,100072.41
2017-07-12T03:07:12.805Z,100073.08
2017-07-12T03:09:42.483Z,100075.91
2017-07-12T03:12:12.209Z,100075.09
2017-07-12T03:14:42.533Z,100086.59
2017-07-12T03:17:12.299Z,100081.63
2017-07-12T03:19:41.953Z,100084.16
2017-07-12T03:22:11.677Z,100075.30
2017-07-12T03:24:41.313Z,100070.39
2017-07-12T03:27:10.957Z,100070.40
2017-07-12T03:29:40.635Z,100069.60
2017-07-12T03:32:10.306Z,100072.89
2017-07-12T03:34:39.997Z,100067.59
2017-07-12T03:37:09.670Z,100070.05
2017-07-12T03:39:55.965Z,100071.53
2017-07-12T03:42:37.534Z,100070.77
2017-07-12T03:45:08.269Z,100079.73
2017-07-12T03:47:41.759Z,100073.76
2017-07-12T03:50:13.555Z,100076.89
2017-07-12T03:52:43.226Z,100067.27
2017-07-12T03:55:13.570Z,100071.77
2017-07-12T03:57:43.281Z,100065.23
2017-07-12T04:00:13.048Z,100067.98
2017-07-12T04:02:42.715Z,100062.95
2017-07-12T04:05:12.481Z,100068.30
2017-07-12T04:07:42.261Z,100069.98
2017-07-12T04:10:12.039Z,100072.70
2017-07-12T04:12:41.732Z,100072.70
2017-07-12T04:15:11.319Z,100071.21
2017-07-12T04:17:41.118Z,100061.25
2017-07-12T04:20:10.904Z,100065.88
2017-07-12T04:22:42.194Z,100060.68
2017-07-12T04:25:12.090Z,100056.22
2017-07-12T04:27:41.789Z,100054.39
2017-07-12T04:30:11.483Z,100051.83
2017-07-12T04:32:41.801Z,100044.42
2017-07-12T04:35:11.698Z,100042.47
2017-07-12T04:37:41.478Z,100041.84
2017-07-12T04:40:11.166Z,100036.77
2017-07-12T04:42:40.862Z,100030.01
2017-07-12T04:45:11.196Z,100031.16
2017-07-12T04:47:41.503Z,100026.30
2017-07-12T04:50:11.849Z,100030.20
2017-07-12T04:52:41.529Z,100031.56
2017-07-12T04:55:11.191Z,100024.13
2017-07-12T04:57:40.911Z,100019.18
2017-07-12T05:00:10.632Z,100021.59
2017-07-12T05:02:40.362Z,100019.55
2017-07-12T05:05:10.715Z,100017.03
2017-07-12T05:07:40.418Z,100010.09
2017-07-12T05:10:10.099Z,100015.48
2017-07-12T05:12:39.780Z,100011.38
2017-07-12T05:15:09.532Z,100012.94
2017-07-12T05:17:39.335Z,100018.40
2017-07-12T05:20:09.393Z,100016.89
2017-07-12T05:22:39.158Z,100012.56
2017-07-12T05:25:08.883Z,100011.56
2017-07-12T05:27:38.632Z,100015.88
2017-07-12T05:30:08.314Z,100018.44
2017-07-12T05:32:42.850Z,100011.57
2017-07-12T05:35:12.620Z,100009.23
2017-07-12T05:37:43.287Z,100009.92
2017-07-12T05:40:13.043Z,100014.45
2017-07-12T05:42:42.735Z,100013.47
2017-07-12T05:45:12.551Z,100011.00
2017-07-12T05:47:42.239Z,100002.87
2017-07-12T05:50:12.644Z,100007.20
2017-07-12T05:52:42.311Z,100006.08
2017-07-12T05:55:12.152Z,100003.99
2017-07-12T05:57:41.912Z,100005.14
2017-07-12T06:00:11.563Z,99996.46
2017-07-12T06:02:41.915Z,99998.76
2017-07-12T06:05:11.564Z,99996.59
2017-07-12T06:07:41.234Z,99993.13
2017-07-12T06:10:10.921Z,99992.59
2017-07-12T06:12:40.567Z,99994.77
2017-07-12T06:15:11.038Z,99991.92
2017-07-12T06:17:40.694Z,99993.91
2017-07-12T06:20:10.460Z,99989.41
2017-07-12T06:22:40.129Z,99990.89
2017-07-12T06:25:10.604Z,99988.13
2017-07-12T06:27:40.167Z,99984.29
2017-07-12T06:30:10.634Z,99983.28
2017-07-12T06:32:40.296Z,99971.73
2017-07-12T06:35:10.075Z,99970.75
2017-07-12T06:37:40.547Z,99974.81
2017-07-12T06:40:10.302Z,99970.89
2017-07-12T06:42:40.032Z,99970.41
2017-07-12T06:45:09.847Z,99978.63
2017-07-12T06:47:39.508Z,99977.29
2017-07-12T06:50:10.092Z,99976.64
2017-07-12T06:52:39.928Z,99967.05
2017-07-12T06:55:09.583Z,99968.50
2017-07-12T06:57:39.351Z,99969.15
2017-07-12T07:00:09.039Z,99966.75
2017-07-12T07:02:38.762Z,99956.86
2017-07-12T07:05:08.582Z,99960.92
2017-07-12T07:07:38.254Z,99948.75
2017-07-12T07:10:07.983Z,99949.83
2017-07-12T07:12:39.309Z,99945.02
2017-07-12T07:15:09.043Z,99937.93
2017-07-12T07:17:39.932Z,99935.91
2017-07-12T07:20:09.570Z,99934.88
2017-07-12T07:22:39.345Z,99933.37
2017-07-12T07:25:09.082Z,99927.94
2017-07-12T07:27:38.762Z,99921.27
2017-07-12T07:30:08.491Z,99924.80
2017-07-12T07:32:38.227Z,99912.22
2017-07-12T07:35:07.994Z,99917.48
2017-07-12T07:37:37.757Z,99910.54
2017-07-12T07:40:08.028Z,99903.93
2017-07-12T07:42:37.805Z,99899.92
2017-07-12T07:45:07.504Z,99900.13
2017-07-12T07:47:37.265Z,99899.86
2017-07-12T07:50:06.942Z,99895.33
2017-07-12T07:52:36.690Z,99892.95
2017-07-12T07:55:06.615Z,99890.41
2017-07-12T07:57:36.312Z,99888.40
2017-07-12T08:00:06.039Z,99881.86
2017-07-12T08:02:35.793Z,99883.73
2017-07-12T08:05:05.567Z,99883.84
2017-07-12T08:07:35.836Z,99880.81
2017-07-12T08:10:05.530Z,99878.46
2017-07-12T08:12:35.248Z,99880.23
2017-07-12T08:15:05.646Z,99872.77
2017-07-12T08:17:36.130Z,99870.52
2017-07-12T08:20:05.971Z,99870.28
2017-07-12T08:22:35.750Z,99868.20
2017-07-12T08:25:05.493Z,99877.97
2017-07-12T08:27:35.190Z,99871.16
2017-07-12T08:30:04.849Z,99863.82
2017-07-12T08:32:35.495Z,99868.20
2017-07-12T08:35:05.150Z,99861.22
2017-07-12T08:37:34.839Z,99861.28
2017-07-12T08:40:04.845Z,99866.07
2017-07-12T08:42:34.495Z,99862.02
2017-07-12T08:45:04.286Z,99860.25
2017-07-12T08:47:33.987Z,99867.30
2017-07-12T08:50:03.686Z,99869.77
2017-07-12T08:52:33.427Z,99865.48
2017-07-12T08:55:03.138Z,99858.08
2017-07-12T08:57:32.968Z,99859.77
2017-07-12T09:00:02.763Z,99862.50
2017-07-12T09:02:32.643Z,99858.84
2017-07-12T09:05:02.858Z,99859.70
2017-07-12T09:07:33.277Z,99851.19
2017-07-12T09:10:02.994Z,99855.75
2017-07-12T09:12:32.731Z,99854.25
2017-07-12T09:15:02.405Z,99853.75
2017-07-12T09:17:32.095Z,99850.86
2017-07-12T09:20:02.127Z,99850.71
2017-07-12T09:22:31.827Z,99846.30
2017-07-12T09:35:00.386Z,99832.77
2017-07-12T09:37:30.113Z,99831.13
2017-07-12T09:39:59.786Z,99823.77
2017-07-12T09:42:30.136Z,99820.94
2017-07-12T09:44:59.874Z,99813.59
2017-07-12T09:47:29.543Z,99815.59
2017-07-12T09:49:59.291Z,99808.97
2017-07-12T09:52:28.969Z,99805.45
2017-07-12T09:54:58.707Z,99800.65
2017-07-12T09:57:28.406Z,99802.86
2017-07-12T09:59:58.183Z,99800.63
2017-07-12T10:02:27.841Z,99791.45
2017-07-12T10:04:57.852Z,99796.55
2017-07-12T10:07:27.555Z,99795.01
2017-07-12T10:09:57.323Z,99799.24
2017-07-12T10:12:26.982Z,99799.50
2017-07-12T10:14:56.635Z,99798.02
2017-07-12T10:17:26.494Z,99796.98
2017-07-12T10:19:56.254Z,99806.62
2017-07-12T10:22:25.990Z,99801.18
2017-07-12T10:24:55.631Z,99802.92
2017-07-12T10:27:25.869Z,99792.31
2017-07-12T10:29:55.628Z,99795.23
2017-07-12T10:32:26.008Z,99797.73
2017-07-12T10:34:56.342Z,99793.13
2017-07-12T10:37:25.987Z,99793.61
2017-07-12T10:39:55.673Z,99791.80
2017-07-12T10:42:25.359Z,99794.30
2017-07-12T10:44:55.016Z,99787.53
2017-07-12T10:47:25.467Z,99785.47
2017-07-12T10:49:55.154Z,99787.98
2017-07-12T10:52:24.883Z,99781.45
2017-07-12T10:54:54.622Z,99785.74
2017-07-12T10:57:24.382Z,99790.95
2017-07-12T10:59:54.079Z,99784.45
2017-07-12T11:02:23.815Z,99780.60
2017-07-12T11:04:53.564Z,99779.52
2017-07-12T11:07:29.688Z,99782.43
2017-07-12T11:09:59.372Z,99786.00
2017-07-12T11:12:29.090Z,99792.25
2017-07-12T11:14:58.834Z,99784.94
2017-07-12T11:17:28.552Z,99790.39
2017-07-12T11:19:58.240Z,99795.84
2017-07-12T11:22:28.910Z,99791.84
2017-07-12T11:24:58.851Z,99786.23
2017-07-12T11:27:28.569Z,99790.38
2017-07-12T11:29:58.234Z,99780.94
2017-07-12T11:32:27.990Z,99777.28
2017-07-12T11:34:57.701Z,99785.38
2017-07-12T11:37:27.451Z,99781.70
2017-07-12T11:39:57.118Z,99771.38
2017-07-12T11:42:26.815Z,99769.78
2017-07-12T11:44:56.487Z,99770.55
2017-07-12T11:47:26.139Z,99767.17
2017-07-12T11:49:55.919Z,99756.41
2017-07-12T11:52:25.574Z,99759.19
2017-07-12T11:54:55.305Z,99760.07
2017-07-12T11:57:25.012Z,99761.50
2017-07-12T11:59:54.714Z,99757.42
2017-07-12T12:02:24.414Z,99762.60
2017-07-12T12:04:54.157Z,99758.02
2017-07-12T12:07:24.042Z,99754.22
2017-07-12T12:10:00.455Z,99758.75
2017-07-12T12:12:31.458Z,99751.75
2017-07-12T12:15:01.204Z,99752.50
2017-07-12T12:17:30.901Z,99751.53
2017-07-12T12:20:00.600Z,99748.09
2017-07-12T12:22:31.102Z,99745.48
2017-07-12T12:25:00.891Z,99739.88
2017-07-12T12:27:30.755Z,99740.02
2017-07-12T12:30:00.418Z,99736.26
2017-07-12T12:32:30.235Z,99732.27
2017-07-12T12:35:00.041Z,99731.38
2017-07-12T12:37:29.762Z,99727.58
2017-07-12T12:39:59.437Z,99726.46
2017-07-12T12:42:30.011Z,99715.20
2017-07-12T12:44:59.711Z,99714.80
2017-07-12T12:47:29.435Z,99709.06
2017-07-12T12:49:59.241Z,99718.91
2017-07-12T12:52:28.931Z,99717.42
2017-07-12T12:54:58.697Z,99717.98
2017-07-12T12:57:28.493Z,99705.68
2017-07-12T12:59:57.964Z,99705.38
2017-07-12T13:02:27.650Z,99698.91
2017-07-12T13:05:02.953Z,99692.39
2017-07-12T13:07:32.708Z,99704.44
2017-07-12T13:10:02.463Z,99695.15
2017-07-12T13:12:33.515Z,99689.20
2017-07-12T13:15:03.437Z,99693.19
2017-07-12T13:17:33.106Z,99682.78
2017-07-12T13:20:03.385Z,99680.34
2017-07-12T13:22:33.170Z,99679.84
2017-07-12T13:25:02.889Z,99682.67
2017-07-12T13:27:32.587Z,99672.66
2017-07-12T13:30:02.389Z,99671.38
2017-07-12T13:32:33.085Z,99671.72
2017-07-12T13:35:02.850Z,99668.67
2017-07-12T13:37:32.522Z,99666.88
2017-07-12T13:40:02.189Z,99670.73
2017-07-12T13:42:31.934Z,99657.58
2017-07-12T13:45:01.702Z,99656.48
2017-07-12T13:47:31.606Z,99652.69
2017-07-12T13:50:01.402Z,99652.96
2017-07-12T13:52:31.194Z,99653.94
2017-07-12T13:55:00.863Z,99652.94
2017-07-12T13:57:30.667Z,99652.44
2017-07-12T14:00:00.967Z,99665.20
2017-07-12T14:02:31.122Z,99656.13
2017-07-12T14:05:00.776Z,99660.59
2017-07-12T14:07:30.491Z,99659.63
2017-07-12T14:10:00.342Z,99664.59
2017-07-12T14:12:30.087Z,99658.39
2017-07-12T14:14:59.859Z,99657.38
2017-07-12T14:17:29.639Z,99649.38
2017-07-12T14:19:59.414Z,99645.95
2017-07-12T14:22:29.830Z,99648.41
2017-07-12T14:25:00.190Z,99644.74
2017-07-12T14:27:29.942Z,99639.86
2017-07-12T14:29:59.625Z,99640.52
2017-07-12T14:32:29.949Z,99636.27
2017-07-12T14:34:59.637Z,99645.39
2017-07-12T14:37:29.443Z,99639.47
2017-07-12T14:39:59.125Z,99638.06
2017-07-12T14:42:28.838Z,99626.98
2017-07-12T14:44:58.550Z,99624.63
2017-07-12T14:47:28.267Z,99617.31
2017-07-12T14:49:57.987Z,99621.05
2017-07-12T14:52:27.687Z,99625.60
2017-07-12T14:54:57.432Z,99625.22
2017-07-12T14:57:30.012Z,99625.64
2017-07-12T15:00:01.634Z,99624.79
2017-07-12T15:02:31.444Z,99626.22
2017-07-12T15:05:01.895Z,99620.33
2017-07-12T15:07:31.557Z,99619.71
2017-07-12T15:10:01.316Z,99611.23
2017-07-12T15:12:31.058Z,99612.88
2017-07-12T15:15:00.736Z,99610.64
2017-07-12T15:17:30.531Z,99610.45
2017-07-12T15:20:00.253Z,99613.53
2017-07-12T15:22:30.012Z,99609.16
2017-07-12T15:24:59.699Z,99611.75
2017-07-12T15:27:29.390Z,99605.55
2017-07-12T15:30:00.411Z,99610.35
2017-07-12T15:32:30.092Z,99607.45
2017-07-12T15:35:00.211Z,99600.45
2017-07-12T15:37:29.998Z,99590.52
2017-07-12T15:40:07.094Z,99600.94
2017-07-12T15:42:36.843Z,99588.87
2017-07-12T15:45:06.583Z,99590.82
2017-07-12T15:47:36.894Z,99581.56
2017-07-12T15:50:06.549Z,99577.03
2017-07-12T15:52:37.241Z,99575.98
2017-07-12T15:55:06.896Z,99572.34
2017-07-12T15:57:36.660Z,99571.39
2017-07-12T16:00:06.421Z,99569.46
2017-07-12T16:02:36.214Z,99564.84
2017-07-12T16:05:05.863Z,99565.52
2017-07-12T16:07:35.523Z,99562.01
2017-07-12T16:10:05.306Z,99561.57
2017-07-12T16:12:34.969Z,99559.75
2017-07-12T16:15:04.672Z,99554.67
2017-07-12T16:17:34.402Z,99549.70
2017-07-12T16:20:04.259Z,99536.84
2017-07-12T16:22:33.948Z,99541.59
2017-07-12T16:25:03.648Z,99533.10
2017-07-12T16:27:34.121Z,99530.60
2017-07-12T16:30:03.773Z,99526.69
2017-07-12T16:32:33.303Z,99524.39
2017-07-12T16:35:03.135Z,99526.66
2017-07-12T16:37:32.793Z,99519.86
2017-07-12T16:40:02.606Z,99518.34
2017-07-12T16:42:33.485Z,99514.39
2017-07-12T16:45:03.906Z,99522.48
2017-07-12T16:47:33.631Z,99508.69
2017-07-12T16:50:03.917Z,99517.48
2017-07-12T16:52:34.430Z,99515.38
2017-07-12T16:55:04.835Z,99511.23
2017-07-12T16:57:34.595Z,99509.84
2017-07-12T17:00:03.987Z,99511.52
2017-07-12T17:02:33.662Z,99514.91
2017-07-12T17:05:05.100Z,99509.27
2017-07-12T17:07:35.726Z,99502.84
2017-07-12T17:10:05.542Z,99505.11
2017-07-12T17:12:35.254Z,99498.33
2017-07-12T17:15:04.975Z,99504.03
2017-07-12T17:17:34.666Z,99501.96
2017-07-12T17:20:04.476Z,99498.29
2017-07-12T17:22:34.951Z,99491.67
2017-07-12T17:25:04.652Z,99490.13
2017-07-12T17:27:35.100Z,99490.83
2017-07-12T17:30:05.275Z,99491.56
2017-07-12T17:32:35.675Z,99497.63
2017-07-12T17:35:05.366Z,99502.16
2017-07-12T17:37:35.047Z,99506.34
2017-07-12T17:40:04.747Z,99507.13
2017-07-12T17:42:35.429Z,99506.83
2017-07-12T17:45:09.132Z,99574.26
2017-07-12T17:47:43.122Z,99601.59
2017-07-12T17:50:15.897Z,99615.59
2017-07-12T17:52:46.989Z,99596.86
2017-07-12T17:55:19.977Z,99638.09
2017-07-12T17:57:50.456Z,99659.64
2017-07-12T18:00:22.019Z,99663.84
2017-07-12T18:02:51.975Z,99680.08
2017-07-12T18:05:22.184Z,99695.76
2017-07-12T18:07:52.265Z,99703.87
2017-07-12T18:10:23.866Z,99716.17
2017-07-12T18:12:54.808Z,99737.69
2017-07-12T18:15:24.671Z,99748.53
2017-07-12T18:17:54.414Z,99751.13
2017-07-12T18:20:25.277Z,99774.47
2017-07-12T18:22:57.703Z,99791.70
2017-07-12T18:25:29.703Z,99799.66
2017-07-12T18:28:07.563Z,99817.17
2017-07-12T18:30:39.806Z,99828.16
2017-07-12T18:33:12.636Z,99832.73
2017-07-12T18:35:45.807Z,99843.42
2017-07-12T18:38:18.399Z,99853.26
2017-07-12T18:40:51.075Z,99866.25
2017-07-12T18:43:22.610Z,99862.66
2017-07-12T18:45:55.146Z,99879.94
2017-07-12T18:48:25.551Z,99887.95
2017-07-12T18:50:55.952Z,99899.80
2017-07-12T18:53:26.954Z,99912.89
2017-07-12T18:55:57.135Z,99919.79
2017-07-12T18:58:27.407Z,99919.81
2017-07-12T19:00:57.557Z,99929.77
2017-07-12T19:03:27.762Z,99934.98
2017-07-12T19:05:57.586Z,99950.40
2017-07-12T19:08:28.336Z,99959.67
2017-07-12T19:10:58.321Z,99957.45
2017-07-12T19:13:28.554Z,99969.53
2017-07-12T19:15:58.783Z,99977.02
2017-07-12T19:18:28.897Z,99988.90
2017-07-12T19:20:59.243Z,99989.36
2017-07-12T19:23:29.549Z,99994.68
2017-07-12T19:25:59.885Z,100008.97
2017-07-12T19:28:30.213Z,100011.84
2017-07-12T19:31:00.384Z,100015.54
2017-07-12T19:33:31.172Z,100025.62
2017-07-12T19:36:01.440Z,100042.35
2017-07-12T19:38:32.086Z,100049.22
2017-07-12T19:41:02.137Z,100056.28
2017-07-12T19:43:33.081Z,100068.75
2017-07-12T19:46:03.219Z,100070.90
2017-07-12T19:48:33.566Z,100082.86
2017-07-12T19:51:03.965Z,100085.64
2017-07-12T19:53:34.102Z,100090.28
2017-07-12T19:56:04.836Z,100107.63
2017-07-12T19:58:35.258Z,100120.55
2017-07-12T20:01:05.900Z,100132.30
2017-07-12T20:03:36.276Z,100143.23
2017-07-12T20:06:07.479Z,100152.44
2017-07-12T20:08:37.700Z,100162.23
2017-07-12T20:11:08.335Z,100174.12
2017-07-12T20:13:39.992Z,100186.42
2017-07-12T20:16:11.115Z,100191.37
2017-07-12T20:18:42.220Z,100198.27
2017-07-12T20:21:11.983Z,100209.79
2017-07-12T20:23:41.783Z,100213.56
2017-07-12T20:26:12.498Z,100222.34
2017-07-12T20:28:43.285Z,100222.31
2017-07-12T20:31:13.127Z,100227.05
2017-07-12T20:33:44.242Z,100232.91
2017-07-12T20:36:14.229Z,100234.50
2017-07-12T20:38:45.163Z,100253.63
2017-07-12T20:41:16.759Z,100259.56
2017-07-12T20:43:47.717Z,100263.84
2017-07-12T20:46:18.873Z,100268.77
2017-07-12T20:48:50.232Z,100292.73
2017-07-12T20:51:21.831Z,100300.59
2017-07-12T20:53:52.772Z,100310.86
2017-07-12T20:56:23.389Z,100320.65
2017-07-12T20:58:53.124Z,100327.63
2017-07-12T21:01:22.839Z,100324.08
2017-07-12T21:03:52.601Z,100336.59
2017-07-12T21:06:24.551Z,100342.40
2017-07-12T21:08:54.254Z,100345.18
2017-07-12T21:11:23.975Z,100362.77
2017-07-12T21:13:54.447Z,100374.30
2017-07-12T21:16:25.492Z,100375.81
2017-07-12T21:18:55.257Z,100373.79
2017-07-12T21:21:24.971Z,100387.55
2017-07-12T21:23:54.946Z,100393.82
2017-07-12T21:26:24.639Z,100409.07
2017-07-12T21:28:55.204Z,100417.20
2017-07-12T21:31:25.544Z,100425.66
2017-07-12T21:33:55.318Z,100429.11
2017-07-12T21:36:25.694Z,100442.77
2017-07-12T21:38:55.394Z,100456.55
2017-07-12T21:41:25.613Z,100464.92
2017-07-12T21:43:55.368Z,100475.72
2017-07-12T21:46:25.055Z,100483.72
2017-07-12T21:48:55.447Z,100484.94
2017-07-12T21:51:25.456Z,100496.83
2017-07-12T21:54:11.902Z,100498.50
2017-07-12T21:57:00.269Z,100513.87
2017-07-12T21:59:51.434Z,100514.64
2017-07-12T22:02:37.787Z,100534.45
2017-07-12T22:05:24.137Z,100539.43
2017-07-12T22:08:10.571Z,100544.56
2017-07-12T22:10:56.931Z,100546.23
2017-07-12T22:13:43.384Z,100558.58
2017-07-12T22:16:29.734Z,100567.63
2017-07-12T22:19:16.443Z,100576.34
2017-07-12T22:22:02.786Z,100580.19
2017-07-12T22:24:49.990Z,100591.12
2017-07-12T22:27:36.489Z,100594.94
2017-07-12T22:30:22.776Z,100602.02
2017-07-12T22:33:09.206Z,100605.02
2017-07-12T22:35:55.619Z,100610.36
2017-07-12T22:38:30.845Z,100608.16
2017-07-12T22:41:05.946Z,100610.30
2017-07-12T22:43:34.916Z,100615.59
2017-07-12T22:46:04.665Z,100617.19
2017-07-12T22:48:34.422Z,100619.55
2017-07-12T22:51:04.076Z,100616.42
2017-07-12T22:53:33.882Z,100629.92
2017-07-12T22:56:03.677Z,100633.34
2017-07-12T22:58:33.346Z,100629.22
2017-07-12T23:01:05.360Z,100640.65
2017-07-12T23:03:37.382Z,100636.83
2017-07-12T23:06:07.845Z,100640.97
2017-07-12T23:08:37.514Z,100654.66
2017-07-12T23:11:07.745Z,100644.70
2017-07-12T23:13:37.431Z,100656.88
2017-07-12T23:16:07.098Z,100661.92
2017-07-12T23:18:36.933Z,100668.03
2017-07-12T23:21:06.706Z,100675.13
2017-07-12T23:23:36.411Z,100689.99
2017-07-12T23:26:05.763Z,100690.13
2017-07-12T23:28:35.545Z,100684.34
2017-07-12T23:31:05.316Z,100692.55
2017-07-12T23:33:35.041Z,100697.38
2017-07-12T23:36:05.515Z,100700.02
2017-07-12T23:38:35.350Z,100704.81
2017-07-12T23:41:05.101Z,100715.36
2017-07-12T23:43:34.818Z,100721.86
2017-07-12T23:46:05.572Z,100723.66
2017-07-12T23:48:35.302Z,100724.51
2017-07-12T23:51:04.635Z,100730.81
2017-07-12T23:53:34.410Z,100740.97
2017-07-12T23:56:04.230Z,100742.97
2017-07-12T23:58:34.455Z,100744.02
